Time;durP1;ratioP1;P1;durP2;ratioP2;P2;SDS_P1;SDS_P2;PMS_P1;PMS_P2;Temp;Humidity;BMP_temperature;BMP_pressure;BME280_temperature;BME280_humidity;BME280_pressure;Samples;Min_cycle;Max_cycle;Signal;HPM_P1;HPM_P2
2021/12/28 00:02:02;;;;;;;43.97;17.15;;;;;;;15.72;17.96;97581.78;5072207;28;20032;-80
2021/12/28 00:04:29;;;;;;;40.38;16.23;;;;;;;16.40;17.60;97583.53;5081132;28;20036;-81
2021/12/28 00:06:55;;;;;;;43.25;18.85;;;;;;;15.38;18.62;97576.88;5072439;28;20047;-81
2021/12/28 00:09:21;;;;;;;54.17;22.52;;;;;;;14.10;19.63;97586.16;5067780;28;20033;-80
2021/12/28 00:11:47;;;;;;;49.83;18.23;;;;;;;14.64;19.55;97579.16;5070639;28;20041;-81
2021/12/28 00:14:13;;;;;;;46.30;18.38;;;;;;;14.99;19.13;97587.69;5068427;28;20043;-81
2021/12/28 00:19:24;;;;;;;52.50;19.48;;;;;;;15.64;18.57;97576.59;5069364;28;20098;-80
2021/12/28 00:21:50;;;;;;;45.63;17.98;;;;;;;17.08;17.18;97582.28;5070230;28;20060;-80
2021/12/28 00:24:16;;;;;;;49.70;19.27;;;;;;;15.60;18.35;97579.38;5069134;28;20058;-80
2021/12/28 00:26:42;;;;;;;50.38;18.95;;;;;;;15.62;18.68;97582.53;5070484;28;20033;-80
2021/12/28 00:29:09;;;;;;;47.85;19.77;;;;;;;14.53;19.22;97585.41;5069259;28;20036;-81
2021/12/28 00:31:35;;;;;;;47.28;19.77;;;;;;;13.52;20.92;97587.88;5070788;28;20041;-80
2021/12/28 00:34:01;;;;;;;49.15;20.15;;;;;;;13.14;21.21;97583.44;5078532;28;20052;-80
2021/12/28 00:36:27;;;;;;;49.97;21.13;;;;;;;12.64;21.51;97579.16;5067694;28;20075;-80
2021/12/28 00:38:53;;;;;;;57.60;23.33;;;;;;;11.13;23.45;97584.56;5071274;28;20033;-81
2021/12/28 00:41:20;;;;;;;40.17;17.95;;;;;;;13.37;21.22;97581.38;5071417;28;20048;-80
2021/12/28 00:43:46;;;;;;;51.42;19.25;;;;;;;11.80;23.05;97570.22;5067146;28;20040;-80
2021/12/28 00:46:12;;;;;;;58.90;22.85;;;;;;;11.22;23.39;97579.63;5064434;28;20039;-81
2021/12/28 00:48:38;;;;;;;55.20;22.05;;;;;;;12.96;21.91;97577.66;5070932;28;20142;-81
2021/12/28 00:51:06;;;;;;;52.53;19.73;;;;;;;14.77;20.10;97577.69;5066973;28;20029;-80
2021/12/28 00:53:32;;;;;;;50.40;18.00;;;;;;;14.18;20.10;97576.78;5062496;28;20448;-80
2021/12/28 00:55:58;;;;;;;53.80;22.70;;;;;;;11.58;23.01;97579.19;5065907;28;20028;-79
2021/12/28 00:58:24;;;;;;;49.33;20.15;;;;;;;11.73;23.53;97587.41;5071913;28;20031;-79
2021/12/28 01:00:51;;;;;;;46.38;18.20;;;;;;;13.18;21.89;97587.03;5063368;28;20028;-79
2021/12/28 01:03:18;;;;;;;49.15;20.67;;;;;;;12.19;22.65;97581.91;5074031;28;20037;-79
2021/12/28 01:05:45;;;;;;;56.15;22.00;;;;;;;10.51;25.11;97582.72;5065512;28;20362;-79
2021/12/28 01:08:11;;;;;;;48.03;21.35;;;;;;;10.50;24.89;97592.13;5067125;28;20093;-79
2021/12/28 01:10:49;;;;;;;54.17;22.55;;;;;;;11.60;23.51;97588.66;5072951;28;20028;-80
2021/12/28 01:13:16;;;;;;;52.83;20.73;;;;;;;12.75;22.25;97582.84;5066567;28;20127;-80
2021/12/28 01:15:43;;;;;;;48.03;19.58;;;;;;;13.45;21.19;97587.78;5068136;28;20380;-80
2021/12/28 01:18:09;;;;;;;50.63;20.48;;;;;;;12.71;22.11;97584.75;5069157;28;22807;-80
2021/12/28 01:20:36;;;;;;;53.72;18.80;;;;;;;15.36;19.14;97574.47;5068510;28;20036;-80
2021/12/28 01:23:03;;;;;;;43.25;17.40;;;;;;;14.40;20.03;97573.03;5065477;28;20033;-81
2021/12/28 01:25:29;;;;;;;50.75;20.27;;;;;;;12.92;21.74;97585.09;5071836;28;20023;-80
2021/12/28 01:27:55;;;;;;;55.85;21.20;;;;;;;12.60;21.98;97578.31;5070137;28;20025;-80
2021/12/28 01:30:23;;;;;;;52.50;19.80;;;;;;;14.44;20.13;97565.59;5068824;28;20387;-80
2021/12/28 01:32:50;;;;;;;50.42;19.95;;;;;;;14.51;19.78;97565.66;5069555;28;20041;-80
2021/12/28 01:35:17;;;;;;;58.38;21.17;;;;;;;14.62;19.80;97570.47;5066575;28;20082;-80
2021/12/28 01:37:44;;;;;;;49.58;19.17;;;;;;;14.14;20.21;97562.13;5077129;28;20032;-80
2021/12/28 01:40:13;;;;;;;52.85;21.08;;;;;;;13.24;21.15;97570.97;5067969;28;20025;-80
2021/12/28 01:42:54;;;;;;;48.83;19.20;;;;;;;13.26;21.55;97554.84;5069587;28;20500;-80
2021/12/28 01:45:33;;;;;;;48.53;18.80;;;;;;;13.76;20.78;97546.00;5063315;28;20040;-80
2021/12/28 01:48:00;;;;;;;39.42;16.60;;;;;;;14.27;20.36;97533.06;5067236;28;20033;-80
2021/12/28 01:50:26;;;;;;;53.25;21.10;;;;;;;14.24;20.03;97525.56;5065215;28;20503;-80
2021/12/28 01:52:52;;;;;;;42.10;17.98;;;;;;;13.71;20.99;97533.34;5068650;28;20033;-80
2021/12/28 01:55:19;;;;;;;44.97;17.33;;;;;;;12.99;21.99;97532.03;5063046;28;20040;-80
2021/12/28 01:57:45;;;;;;;52.88;20.80;;;;;;;11.59;23.47;97531.31;5067406;28;20032;-80
2021/12/28 02:00:12;;;;;;;54.88;20.38;;;;;;;11.30;23.56;97531.91;5065299;28;20051;-81
2021/12/28 02:02:38;;;;;;;52.53;20.13;;;;;;;11.19;24.51;97530.91;5065285;28;20041;-81
2021/12/28 02:05:04;;;;;;;52.40;20.90;;;;;;;11.87;23.19;97525.56;5065668;28;20028;-81
2021/12/28 02:07:30;;;;;;;43.75;18.40;;;;;;;14.01;20.88;97518.63;5063673;28;20063;-81
2021/12/28 02:09:56;;;;;;;56.47;21.13;;;;;;;14.05;20.27;97516.72;5065618;28;20447;-81
2021/12/28 02:12:22;;;;;;;53.67;20.83;;;;;;;13.24;21.26;97513.06;5063022;28;20056;-81
2021/12/28 02:14:49;;;;;;;51.25;20.73;;;;;;;13.85;20.47;97513.38;5069843;28;20450;-81
2021/12/28 02:17:15;;;;;;;52.92;20.13;;;;;;;11.95;22.77;97521.78;5068016;28;20111;-81
2021/12/28 02:19:42;;;;;;;51.88;20.45;;;;;;;12.70;21.79;97519.81;5069054;28;20039;-81
2021/12/28 02:22:08;;;;;;;53.58;20.45;;;;;;;12.17;22.63;97526.47;5069921;28;20095;-81
2021/12/28 02:24:34;;;;;;;49.08;20.83;;;;;;;13.79;20.61;97526.69;5069408;28;20119;-81
2021/12/28 02:27:00;;;;;;;50.10;19.67;;;;;;;13.34;20.94;97531.72;5068207;28;20499;-81
2021/12/28 02:29:27;;;;;;;45.80;19.77;;;;;;;14.71;19.69;97526.72;5063744;28;20082;-81
2021/12/28 02:31:55;;;;;;;43.50;18.27;;;;;;;14.08;19.87;97527.78;5073210;28;20036;-81
2021/12/28 02:34:25;;;;;;;53.72;19.63;;;;;;;14.32;20.04;97518.16;5063904;28;20044;-81
2021/12/28 02:36:52;;;;;;;49.65;18.92;;;;;;;15.51;18.66;97518.06;5065544;28;20040;-81
2021/12/28 02:39:18;;;;;;;56.03;21.98;;;;;;;12.76;21.36;97528.56;5065390;28;20039;-82
2021/12/28 02:41:45;;;;;;;42.97;18.90;;;;;;;13.71;20.39;97525.06;5066922;28;20024;-81
2021/12/28 02:44:11;;;;;;;51.83;20.23;;;;;;;13.55;20.42;97516.22;5071311;28;20194;-81
2021/12/28 02:46:37;;;;;;;42.28;17.05;;;;;;;12.77;21.36;97517.16;5066497;28;20115;-81
2021/12/28 02:49:04;;;;;;;50.67;20.20;;;;;;;13.07;20.94;97515.25;5065672;28;20041;-81
2021/12/28 02:51:30;;;;;;;51.15;21.08;;;;;;;11.75;22.29;97508.09;5066201;28;20032;-80
2021/12/28 02:53:56;;;;;;;52.00;22.42;;;;;;;11.99;22.24;97512.44;5068823;28;20029;-82
2021/12/28 02:56:22;;;;;;;45.92;17.70;;;;;;;12.17;22.49;97504.47;5067140;28;20032;-82
2021/12/28 02:58:51;;;;;;;37.67;16.05;;;;;;;12.00;22.96;97502.19;5067579;28;20112;-81
2021/12/28 03:01:19;;;;;;;48.33;18.67;;;;;;;13.03;21.59;97495.09;5075433;28;20035;-81
2021/12/28 03:03:48;;;;;;;48.17;19.95;;;;;;;11.75;22.73;97494.34;5071140;28;20475;-82
2021/12/28 03:06:17;;;;;;;55.95;20.38;;;;;;;12.07;22.35;97500.38;5070279;28;20033;-82
2021/12/28 03:08:46;;;;;;;47.67;19.02;;;;;;;12.26;22.13;97493.97;5063788;28;20029;-82
2021/12/28 03:11:13;;;;;;;48.13;18.42;;;;;;;13.48;20.44;97482.25;5070012;28;20056;-81
2021/12/28 03:13:51;;;;;;;43.17;17.33;;;;;;;13.49;20.55;97484.63;5068248;28;20395;-81
2021/12/28 03:16:18;;;;;;;45.15;16.90;;;;;;;12.86;21.24;97490.13;5062302;28;20036;-81
2021/12/28 03:18:45;;;;;;;47.65;16.67;;;;;;;15.03;18.68;97489.00;5064124;28;20921;-81
2021/12/28 03:21:14;;;;;;;40.38;16.90;;;;;;;14.66;18.83;97488.38;5066656;28;20037;-82
2021/12/28 03:23:41;;;;;;;49.33;19.08;;;;;;;16.65;16.93;97483.78;5066782;28;20040;-82
2021/12/28 03:26:09;;;;;;;43.60;19.17;;;;;;;16.37;17.03;97475.47;5062064;28;20040;-81
2021/12/28 03:28:39;;;;;;;39.97;16.05;;;;;;;16.00;17.32;97475.88;5064856;28;20078;-81
2021/12/28 03:31:08;;;;;;;38.92;16.15;;;;;;;15.47;17.64;97477.75;5062369;28;20025;-81
2021/12/28 03:33:37;;;;;;;45.75;16.38;;;;;;;13.99;19.38;97477.63;5067677;28;20438;-81
2021/12/28 03:36:05;;;;;;;39.35;15.98;;;;;;;15.35;17.88;97478.88;5069758;28;20043;-81
2021/12/28 03:38:31;;;;;;;39.58;15.90;;;;;;;15.48;17.46;97468.25;5067401;28;20043;-80
2021/12/28 03:40:58;;;;;;;44.95;17.15;;;;;;;13.94;19.14;97472.47;5070073;28;20024;-80
2021/12/28 03:43:24;;;;;;;48.60;18.55;;;;;;;14.23;18.74;97462.44;5068396;28;20055;-79
2021/12/28 03:45:51;;;;;;;45.22;16.75;;;;;;;14.76;18.42;97471.88;5065015;28;20036;-79
2021/12/28 03:48:18;;;;;;;40.95;15.93;;;;;;;15.37;17.91;97461.88;5065361;28;20043;-79
2021/12/28 03:50:44;;;;;;;44.15;16.83;;;;;;;16.63;16.87;97469.53;5066631;28;20517;-79
2021/12/28 03:53:10;;;;;;;44.95;17.48;;;;;;;15.56;17.24;97464.34;5064383;28;20079;-80
2021/12/28 03:55:37;;;;;;;40.33;14.70;;;;;;;16.12;16.75;97458.88;5064537;28;20105;-79
2021/12/28 03:58:05;;;;;;;41.80;16.70;;;;;;;14.93;17.99;97464.88;5067298;28;20079;-79
2021/12/28 04:00:36;;;;;;;43.67;17.27;;;;;;;14.70;18.17;97454.13;5065603;28;20362;-79
2021/12/28 04:03:03;;;;;;;30.52;13.48;;;;;;;16.11;16.91;97465.56;5062994;28;20067;-80
2021/12/28 04:05:29;;;;;;;39.15;16.48;;;;;;;15.78;16.88;97471.47;5064963;28;20036;-80
2021/12/28 04:07:55;;;;;;;40.55;16.25;;;;;;;16.59;16.21;97479.84;5070438;28;20043;-80
2021/12/28 04:10:29;;;;;;;34.92;13.68;;;;;;;17.35;15.65;97481.97;5064659;28;20112;-79
2021/12/28 04:12:59;;;;;;;37.05;13.57;;;;;;;18.09;15.10;97474.00;5071576;28;20047;-79
2021/12/28 04:15:25;;;;;;;36.88;13.27;;;;;;;17.59;15.21;97483.88;5068627;28;20039;-79
2021/12/28 04:17:51;;;;;;;46.80;16.67;;;;;;;17.21;15.55;97477.28;5067193;28;20052;-79
2021/12/28 04:20:20;;;;;;;37.95;15.13;;;;;;;16.62;15.80;97481.03;5067718;28;22804;-80
2021/12/28 04:22:46;;;;;;;38.25;13.55;;;;;;;16.74;15.51;97470.28;5068720;28;20112;-80
2021/12/28 04:25:16;;;;;;;38.20;13.88;;;;;;;16.51;15.68;97473.50;5066739;28;20032;-80
2021/12/28 04:27:42;;;;;;;43.37;17.13;;;;;;;16.98;15.45;97474.19;5065966;28;20028;-82
2021/12/28 04:30:12;;;;;;;44.47;15.52;;;;;;;17.01;15.81;97476.16;5069053;28;20090;-82
2021/12/28 04:32:38;;;;;;;41.42;15.88;;;;;;;17.08;15.50;97473.38;5068993;28;20037;-82
2021/12/28 04:35:05;;;;;;;36.42;15.57;;;;;;;17.37;15.17;97477.59;5069949;28;20123;-82
2021/12/28 04:37:32;;;;;;;38.50;13.55;;;;;;;17.14;15.15;97468.97;5067747;28;20163;-82
2021/12/28 04:39:58;;;;;;;35.05;12.38;;;;;;;17.18;15.23;97473.31;5068723;28;20104;-81
2021/12/28 04:42:26;;;;;;;27.70;12.60;;;;;;;17.76;14.63;97463.53;5071382;28;20112;-82
2021/12/28 04:44:54;;;;;;;37.05;14.02;;;;;;;17.50;14.87;97466.84;5068692;28;20039;-81
2021/12/28 04:47:20;;;;;;;38.83;15.05;;;;;;;17.43;15.11;97466.88;5071285;28;20028;-82
2021/12/28 04:49:46;;;;;;;34.67;14.23;;;;;;;17.54;15.11;97473.19;5066672;28;20489;-82
2021/12/28 04:52:13;;;;;;;35.67;14.52;;;;;;;17.31;14.86;97468.13;5074908;28;20032;-82
2021/12/28 04:54:39;;;;;;;33.42;14.32;;;;;;;17.18;14.95;97465.00;5066641;28;20029;-82
2021/12/28 04:57:06;;;;;;;34.75;14.65;;;;;;;17.47;14.86;97473.19;5067691;28;20032;-81
2021/12/28 04:59:33;;;;;;;38.95;14.35;;;;;;;16.55;15.50;97473.47;5068545;28;20123;-81
2021/12/28 05:01:59;;;;;;;40.20;15.40;;;;;;;16.60;16.08;97481.41;5073718;28;20033;-82
2021/12/28 05:04:25;;;;;;;31.58;12.02;;;;;;;17.46;15.27;97477.94;5061298;28;20478;-81
2021/12/28 05:06:55;;;;;;;35.17;13.63;;;;;;;18.25;14.69;97476.28;5064747;28;20087;-81
2021/12/28 05:09:22;;;;;;;36.92;15.05;;;;;;;18.12;14.27;97478.75;5069379;28;20035;-81
2021/12/28 05:11:48;;;;;;;30.00;12.95;;;;;;;17.61;14.38;97482.25;5072401;28;20028;-82
2021/12/28 05:14:19;;;;;;;33.38;15.15;;;;;;;17.13;14.61;97472.94;5067131;28;20043;-81
2021/12/28 05:16:46;;;;;;;33.92;13.30;;;;;;;17.45;14.14;97470.03;5068782;28;20492;-81
2021/12/28 05:19:14;;;;;;;33.38;12.93;;;;;;;17.85;14.38;97478.53;5068801;28;20029;-80
2021/12/28 05:21:40;;;;;;;37.92;13.43;;;;;;;18.42;13.83;97473.34;5066883;28;20033;-80
2021/12/28 05:24:07;;;;;;;33.67;13.88;;;;;;;18.56;13.38;97476.00;5071173;28;20020;-79
2021/12/28 05:26:33;;;;;;;38.08;13.63;;;;;;;18.40;13.79;97469.38;5066809;28;20098;-78
2021/12/28 05:28:59;;;;;;;40.67;16.02;;;;;;;17.99;13.87;97474.09;5074176;28;20024;-78
2021/12/28 05:31:27;;;;;;;43.28;15.93;;;;;;;18.10;13.74;97478.38;5067138;28;20120;-78
2021/12/28 05:33:54;;;;;;;36.58;14.40;;;;;;;17.86;13.89;97480.13;5061387;28;20045;-78
2021/12/28 05:36:21;;;;;;;41.72;16.02;;;;;;;15.26;15.56;97474.88;5062664;28;20037;-78
2021/12/28 05:38:47;;;;;;;34.60;12.70;;;;;;;16.00;15.66;97466.75;5064292;28;20531;-78
2021/12/28 05:41:14;;;;;;;39.45;16.10;;;;;;;15.38;16.29;97471.78;5067666;28;20496;-78
2021/12/28 05:43:40;;;;;;;38.63;14.77;;;;;;;15.16;16.94;97477.22;5067669;28;20111;-78
2021/12/28 05:46:06;;;;;;;36.65;14.30;;;;;;;15.48;16.53;97477.34;5063779;28;20037;-78
2021/12/28 05:48:32;;;;;;;45.38;17.55;;;;;;;16.36;15.85;97460.03;5065275;28;20032;-78
2021/12/28 05:50:59;;;;;;;45.25;16.48;;;;;;;16.00;16.33;97464.00;5062972;28;20032;-78
2021/12/28 05:53:25;;;;;;;38.03;15.50;;;;;;;17.04;15.34;97475.34;5061479;28;20032;-79
2021/12/28 05:55:51;;;;;;;40.83;14.77;;;;;;;17.75;14.47;97473.84;5060349;28;20028;-78
2021/12/28 05:58:17;;;;;;;47.58;17.05;;;;;;;17.77;14.77;97471.47;5069216;28;20085;-78
2021/12/28 06:00:43;;;;;;;45.20;16.25;;;;;;;17.91;14.64;97468.59;5065978;28;20041;-78
2021/12/28 06:03:09;;;;;;;41.28;15.20;;;;;;;17.71;14.58;97466.75;5065417;28;20036;-79
2021/12/28 06:05:35;;;;;;;41.83;14.90;;;;;;;17.85;14.34;97464.66;5065530;28;20032;-79
2021/12/28 06:08:02;;;;;;;43.05;15.93;;;;;;;17.38;14.65;97470.06;5067030;28;20056;-79
2021/12/28 06:10:28;;;;;;;35.47;14.75;;;;;;;17.84;14.42;97462.28;5062744;28;20028;-78
2021/12/28 06:12:55;;;;;;;35.10;14.88;;;;;;;18.23;14.21;97462.78;5061922;28;20033;-78
2021/12/28 06:15:21;;;;;;;37.70;14.35;;;;;;;18.48;13.81;97466.16;5065494;28;20056;-78
2021/12/28 06:17:47;;;;;;;40.58;14.98;;;;;;;18.66;13.71;97463.22;5072095;28;20061;-78
2021/12/28 06:20:13;;;;;;;40.97;14.00;;;;;;;18.74;13.39;97467.47;5069503;28;20102;-79
2021/12/28 06:22:39;;;;;;;36.08;15.88;;;;;;;18.33;13.61;97459.13;5065774;28;20044;-78
2021/12/28 06:25:07;;;;;;;38.05;15.30;;;;;;;18.38;13.55;97472.59;5067410;28;20543;-78
2021/12/28 06:27:33;;;;;;;34.83;12.52;;;;;;;18.22;13.75;97471.53;5069152;28;20404;-79
2021/12/28 06:29:59;;;;;;;36.00;14.32;;;;;;;17.78;14.18;97475.78;5068586;28;20033;-78
2021/12/28 06:32:25;;;;;;;38.55;14.50;;;;;;;17.63;14.28;97476.28;5072191;28;20028;-78
2021/12/28 06:34:52;;;;;;;35.28;15.82;;;;;;;17.29;14.62;97476.81;5074380;28;20392;-78
2021/12/28 06:37:18;;;;;;;35.72;14.45;;;;;;;17.20;14.65;97476.47;5072660;28;20044;-78
2021/12/28 06:39:44;;;;;;;43.28;15.05;;;;;;;17.34;14.28;97477.63;5071928;28;20549;-78
2021/12/28 06:42:10;;;;;;;38.78;14.70;;;;;;;17.38;14.69;97484.72;5068035;28;20052;-78
2021/12/28 06:44:36;;;;;;;36.25;15.57;;;;;;;17.41;14.75;97489.44;5064036;28;20036;-79
2021/12/28 06:47:02;;;;;;;37.08;14.73;;;;;;;17.56;14.74;97482.69;5067519;28;20033;-78
2021/12/28 06:49:28;;;;;;;45.78;17.42;;;;;;;17.06;15.25;97487.63;5070092;28;20039;-78
2021/12/28 06:51:54;;;;;;;42.70;15.70;;;;;;;16.45;15.88;97486.13;5068288;28;20032;-76
2021/12/28 06:54:20;;;;;;;37.78;14.77;;;;;;;15.16;17.04;97480.00;5069978;28;20024;-77
2021/12/28 06:56:46;;;;;;;41.45;14.95;;;;;;;14.31;17.92;97475.94;5069970;28;20086;-77
2021/12/28 06:59:12;;;;;;;34.42;14.88;;;;;;;14.50;17.95;97483.97;5068657;28;20560;-76
2021/12/28 07:01:39;;;;;;;31.80;13.45;;;;;;;14.68;17.77;97475.78;5073522;28;20043;-77
2021/12/28 07:04:05;;;;;;;30.05;12.13;;;;;;;14.16;18.31;97473.44;5073256;28;20076;-77
2021/12/28 07:06:31;;;;;;;41.85;17.38;;;;;;;13.36;19.09;97464.00;5069991;28;20055;-77
2021/12/28 07:08:57;;;;;;;36.50;14.35;;;;;;;14.61;18.24;97475.75;5056312;28;20056;-77
2021/12/28 07:11:23;;;;;;;31.70;12.88;;;;;;;15.46;17.17;97474.19;5062629;28;20028;-77
2021/12/28 07:13:49;;;;;;;30.80;12.85;;;;;;;15.25;17.62;97474.09;5062163;28;20036;-77
2021/12/28 07:16:15;;;;;;;37.65;13.77;;;;;;;15.29;17.38;97474.09;5068919;28;20115;-77
2021/12/28 07:18:41;;;;;;;31.90;12.57;;;;;;;15.45;17.33;97477.34;5060829;28;20028;-77
2021/12/28 07:21:07;;;;;;;43.22;15.50;;;;;;;14.37;18.32;97479.94;5067688;28;20063;-77
2021/12/28 07:23:33;;;;;;;33.13;12.35;;;;;;;15.29;17.49;97483.19;5067958;28;20097;-77
2021/12/28 07:25:59;;;;;;;38.80;15.50;;;;;;;14.89;18.16;97486.19;5065559;28;20044;-76
2021/12/28 07:28:26;;;;;;;37.28;14.48;;;;;;;14.62;18.33;97485.63;5065490;28;20035;-77
2021/12/28 07:30:53;;;;;;;35.25;14.13;;;;;;;14.28;18.87;97478.66;5065370;28;20086;-78
2021/12/28 07:33:19;;;;;;;33.40;12.70;;;;;;;15.21;17.99;97487.13;5062827;28;20036;-78
2021/12/28 07:35:45;;;;;;;33.60;11.43;;;;;;;15.43;17.64;97491.53;5064145;28;20045;-78
2021/12/28 07:38:11;;;;;;;33.58;15.13;;;;;;;15.22;18.07;97495.00;5067560;28;20500;-77
2021/12/28 07:40:37;;;;;;;30.80;13.10;;;;;;;15.96;17.56;97500.00;5063740;28;20537;-78
2021/12/28 07:43:03;;;;;;;36.00;13.30;;;;;;;15.94;17.35;97499.56;5061275;28;20530;-77
2021/12/28 07:45:30;;;;;;;31.38;13.15;;;;;;;16.57;16.82;97501.59;5063881;28;20045;-78
2021/12/28 07:47:56;;;;;;;38.00;15.68;;;;;;;15.65;17.67;97501.50;5064272;28;20041;-78
2021/12/28 07:50:22;;;;;;;33.05;13.23;;;;;;;15.19;18.17;97498.53;5067652;28;20045;-77
2021/12/28 07:52:49;;;;;;;34.33;14.90;;;;;;;14.71;18.67;97496.31;5063601;28;20103;-77
2021/12/28 07:55:16;;;;;;;33.97;13.27;;;;;;;13.85;19.74;97502.34;5061928;28;20048;-77
2021/12/28 07:57:42;;;;;;;32.55;14.00;;;;;;;14.60;19.14;97489.94;5065883;28;20040;-77
2021/12/28 08:00:15;;;;;;;41.85;15.98;;;;;;;15.10;18.33;97489.81;5063413;28;20062;-77
2021/12/28 08:02:43;;;;;;;41.90;16.50;;;;;;;15.28;18.42;97503.75;5064524;28;20051;-78
2021/12/28 08:05:10;;;;;;;41.15;18.67;;;;;;;15.85;17.80;97494.44;5059448;28;20045;-77
2021/12/28 08:07:36;;;;;;;41.38;16.45;;;;;;;15.38;18.49;97494.66;5067997;28;20021;-77
2021/12/28 08:10:04;;;;;;;59.63;23.10;;;;;;;14.80;18.76;97482.94;5065112;28;20384;-77
2021/12/28 08:12:30;;;;;;;40.42;15.90;;;;;;;12.53;21.76;97495.59;5063069;28;20460;-78
2021/12/28 08:14:57;;;;;;;38.35;17.00;;;;;;;14.18;19.83;97499.47;5064229;28;20052;-77
2021/12/28 08:17:23;;;;;;;37.92;16.48;;;;;;;12.66;21.56;97509.91;5065581;28;20040;-77
2021/12/28 08:19:49;;;;;;;42.58;16.10;;;;;;;12.72;21.65;97511.97;5064698;28;20089;-78
2021/12/28 08:22:16;;;;;;;36.58;14.57;;;;;;;13.04;21.24;97504.16;5063761;28;20544;-78
2021/12/28 08:24:42;;;;;;;39.28;15.68;;;;;;;14.16;19.93;97493.56;5066201;28;20392;-78
2021/12/28 08:27:08;;;;;;;32.90;15.25;;;;;;;14.62;19.54;97490.34;5067871;28;20365;-77
2021/12/28 08:29:34;;;;;;;35.17;13.82;;;;;;;15.41;18.56;97484.78;5064740;28;20040;-77
2021/12/28 08:32:00;;;;;;;42.78;19.15;;;;;;;12.55;21.54;97487.75;5064464;28;20030;-76
2021/12/28 08:34:26;;;;;;;37.92;16.52;;;;;;;13.82;20.66;97481.00;5060432;28;20044;-76
2021/12/28 08:36:52;;;;;;;38.13;15.57;;;;;;;14.74;19.36;97470.69;5061483;28;20033;-77
2021/12/28 08:39:18;;;;;;;37.78;15.82;;;;;;;13.88;19.95;97476.75;5064525;28;20492;-76
2021/12/28 08:41:44;;;;;;;39.08;15.45;;;;;;;15.24;18.59;97467.75;5061606;28;20042;-76
2021/12/28 08:44:11;;;;;;;43.42;18.50;;;;;;;14.50;19.37;97472.13;5060196;28;20037;-76
2021/12/28 08:46:39;;;;;;;39.42;15.95;;;;;;;14.51;19.72;97460.72;5058303;28;20031;-77
2021/12/28 08:49:05;;;;;;;40.25;16.98;;;;;;;14.50;19.67;97461.06;5060054;28;20132;-77
2021/12/28 08:51:32;;;;;;;38.08;15.93;;;;;;;16.11;18.06;97445.41;5062941;28;20034;-77
2021/12/28 08:53:58;;;;;;;40.53;14.68;;;;;;;12.85;21.85;97449.19;5063979;28;20040;-77
2021/12/28 08:56:24;;;;;;;34.78;14.55;;;;;;;12.40;22.76;97452.91;5062606;28;20033;-77
2021/12/28 08:58:51;;;;;;;34.80;15.80;;;;;;;12.94;22.17;97442.25;5063636;28;20068;-76
2021/12/28 09:01:17;;;;;;;37.78;16.65;;;;;;;14.63;19.89;97447.75;5065265;28;20044;-77
2021/12/28 09:03:43;;;;;;;39.38;17.63;;;;;;;14.74;20.11;97446.63;5062636;28;20041;-77
2021/12/28 09:06:09;;;;;;;48.17;19.15;;;;;;;12.06;22.76;97459.47;5065113;28;20058;-77
2021/12/28 09:08:35;;;;;;;65.00;27.90;;;;;;;15.06;20.02;97446.75;5065055;28;20028;-77
2021/12/28 09:11:02;;;;;;;37.78;16.05;;;;;;;14.59;20.17;97450.47;5063636;28;20033;-77
2021/12/28 09:13:28;;;;;;;44.30;18.40;;;;;;;12.00;23.46;97461.75;5062464;28;20426;-77
2021/12/28 09:15:54;;;;;;;39.90;16.52;;;;;;;11.72;23.98;97453.81;5063366;28;20128;-77
2021/12/28 09:18:20;;;;;;;38.95;16.63;;;;;;;11.81;24.04;97447.28;5058973;28;20037;-77
2021/12/28 09:20:46;;;;;;;43.17;17.75;;;;;;;12.13;23.57;97451.34;5055779;28;20025;-77
2021/12/28 09:23:13;;;;;;;38.97;16.40;;;;;;;12.55;23.03;97445.66;5063944;28;20045;-77
2021/12/28 09:25:41;;;;;;;43.72;18.88;;;;;;;12.53;23.32;97451.53;5063295;28;20111;-77
2021/12/28 09:28:08;;;;;;;48.03;20.30;;;;;;;15.37;20.42;97445.28;5061538;28;20120;-77
2021/12/28 09:30:36;;;;;;;40.58;16.65;;;;;;;14.56;20.74;97448.50;5057840;28;20043;-76
2021/12/28 09:33:03;;;;;;;36.70;16.92;;;;;;;13.35;22.09;97445.09;5055594;28;20082;-76
2021/12/28 09:35:29;;;;;;;35.83;15.00;;;;;;;14.41;21.44;97444.06;5063707;28;20105;-77
2021/12/28 09:37:55;;;;;;;36.55;16.17;;;;;;;14.07;21.18;97454.41;5063248;28;20108;-76
2021/12/28 09:40:21;;;;;;;32.92;15.23;;;;;;;15.98;19.56;97449.75;5063300;28;20043;-77
2021/12/28 09:42:47;;;;;;;30.25;13.75;;;;;;;16.91;18.71;97452.81;5059624;28;20509;-77
2021/12/28 09:45:15;;;;;;;31.70;16.33;;;;;;;17.74;17.77;97449.25;5059878;28;20083;-77
2021/12/28 09:47:42;;;;;;;32.05;14.63;;;;;;;18.78;16.56;97448.78;5057198;28;20548;-77
2021/12/28 09:50:11;;;;;;;31.90;13.20;;;;;;;17.92;17.31;97452.72;5063237;28;20116;-77
2021/12/28 09:52:38;;;;;;;29.95;13.82;;;;;;;19.26;16.49;97452.19;5064904;28;20032;-77
2021/12/28 09:55:06;;;;;;;28.63;13.25;;;;;;;20.11;15.32;97439.88;5083866;28;20029;-78
2021/12/28 09:57:32;;;;;;;30.48;13.50;;;;;;;17.49;17.29;97434.72;5066445;28;20060;-78
2021/12/28 09:59:59;;;;;;;34.08;14.73;;;;;;;15.86;19.66;97450.94;5065478;28;20120;-77
2021/12/28 10:02:25;;;;;;;29.08;12.55;;;;;;;17.12;18.20;97441.66;5068734;28;20522;-77
2021/12/28 10:05:05;;;;;;;25.65;12.35;;;;;;;17.61;17.35;97432.31;5066255;28;20037;-76
2021/12/28 10:07:34;;;;;;;32.55;13.90;;;;;;;18.38;16.50;97428.13;5064566;28;20459;-76
2021/12/28 10:10:00;;;;;;;39.00;16.15;;;;;;;17.27;17.68;97420.16;5060856;28;20040;-78
2021/12/28 10:12:32;;;;;;;37.25;15.70;;;;;;;14.45;20.57;97400.69;5070779;28;20020;-77
2021/12/28 10:15:00;;;;;;;35.85;15.00;;;;;;;13.82;21.80;97399.03;5065630;28;20474;-79
2021/12/28 10:17:29;;;;;;;39.33;17.45;;;;;;;14.40;21.20;97399.06;5065498;28;20056;-77
2021/12/28 10:19:57;;;;;;;37.35;16.67;;;;;;;14.42;21.08;97401.47;5065685;28;20037;-79
2021/12/28 10:22:32;;;;;;;35.70;16.73;;;;;;;14.24;21.34;97393.03;5068840;28;20039;-78
2021/12/28 10:25:45;;;;;;;37.13;17.38;;;;;;;11.19;25.43;97393.53;5070285;28;20090;-77
2021/12/28 10:28:21;;;;;;;38.90;18.85;;;;;;;11.17;25.74;97395.88;5069816;28;20503;-78
2021/12/28 10:30:51;;;;;;;35.13;16.83;;;;;;;12.11;24.41;97387.66;5069614;28;20044;-78
2021/12/28 10:33:21;;;;;;;42.17;17.43;;;;;;;11.17;25.74;97391.19;5065086;28;20058;-78
2021/12/28 10:35:56;;;;;;;38.80;17.05;;;;;;;11.72;25.25;97400.78;5068963;28;20318;-78
2021/12/28 10:38:29;;;;;;;40.33;17.50;;;;;;;14.28;21.68;97393.84;5071323;28;20029;-77
2021/12/28 10:40:59;;;;;;;33.90;16.75;;;;;;;13.20;23.20;97394.53;5072090;28;20036;-77
2021/12/28 10:43:29;;;;;;;35.70;14.95;;;;;;;15.48;20.36;97393.56;5071182;28;20145;-77
2021/12/28 10:46:04;;;;;;;37.78;16.35;;;;;;;16.94;18.83;97368.81;5067121;28;20190;-76
2021/12/28 10:48:48;;;;;;;39.05;17.83;;;;;;;13.44;22.44;97384.94;5068074;28;20034;-78
2021/12/28 10:51:19;;;;;;;36.95;16.70;;;;;;;12.20;24.47;97391.72;5066984;28;20094;-77
2021/12/28 10:54:00;;;;;;;41.40;18.45;;;;;;;11.53;25.53;97376.88;5075732;28;20032;-78
2021/12/28 10:56:29;;;;;;;39.40;17.35;;;;;;;12.41;24.51;97358.19;5073591;28;20044;-78
2021/12/28 10:58:56;;;;;;;37.38;18.13;;;;;;;13.74;22.66;97346.97;5066693;28;20129;-77
2021/12/28 11:01:24;;;;;;;42.42;18.88;;;;;;;13.62;23.03;97333.47;5066633;28;20107;-77
2021/12/28 11:03:56;;;;;;;42.40;18.25;;;;;;;13.98;22.62;97340.03;5066675;28;20070;-78
2021/12/28 11:06:26;;;;;;;34.70;16.52;;;;;;;15.05;21.47;97327.09;5066476;28;20376;-77
2021/12/28 11:08:57;;;;;;;;;;;;;;;14.61;21.47;97334.09;5062218;28;20118;-78
2021/12/28 11:11:25;;;;;;;34.58;15.00;;;;;;;15.90;20.31;97327.16;5064428;28;19920;-78
2021/12/28 11:14:00;;;;;;;44.83;19.10;;;;;;;14.44;21.83;97330.06;5066998;28;20040;-78
2021/12/28 11:16:29;;;;;;;39.83;18.05;;;;;;;14.51;21.55;97330.91;5070651;28;20028;-77
2021/12/28 11:18:57;;;;;;;42.95;18.65;;;;;;;12.54;24.33;97344.94;5067909;28;20082;-78
2021/12/28 11:21:29;;;;;;;42.15;19.83;;;;;;;12.00;25.17;97340.72;5069696;28;20040;-78